Time;durP1;ratioP1;P1;durP2;ratioP2;P2;SDS_P1;SDS_P2;PMS_P1;PMS_P2;Temp;Humidity;BMP_temperature;BMP_pressure;BME280_temperature;BME280_humidity;BME280_pressure;Samples;Min_cycle;Max_cycle;Signal;HPM_P1;HPM_P2
2023/01/24 00:00:15;;;;;;;22.70;12.63;;;2.50;99.90;;;;;;5108831;28;20044;-80
2023/01/24 00:02:42;;;;;;;23.83;12.70;;;2.50;99.90;;;;;;5125135;28;20044;-80
2023/01/24 00:05:08;;;;;;;23.23;13.18;;;2.50;99.90;;;;;;5125373;28;20084;-80
2023/01/24 00:07:35;;;;;;;21.25;13.13;;;2.50;99.90;;;;;;5108504;28;20044;-80
2023/01/24 00:10:02;;;;;;;24.27;13.40;;;2.70;99.90;;;;;;5108090;28;20131;-80
2023/01/24 00:12:29;;;;;;;23.48;13.07;;;2.50;99.90;;;;;;5127536;28;20044;-80
2023/01/24 00:14:57;;;;;;;23.85;13.48;;;2.50;99.90;;;;;;5112317;28;20039;-80
2023/01/24 00:17:24;;;;;;;22.80;13.95;;;2.70;99.90;;;;;;5113012;28;20035;-80
2023/01/24 00:19:51;;;;;;;27.02;14.35;;;2.80;99.90;;;;;;5129584;28;20044;-80
2023/01/24 00:22:17;;;;;;;23.35;12.80;;;2.40;99.90;;;;;;5112862;28;20047;-80
2023/01/24 00:24:45;;;;;;;22.95;13.43;;;2.50;99.90;;;;;;5112637;28;20044;-80
2023/01/24 00:27:12;;;;;;;26.13;13.70;;;2.50;99.90;;;;;;5112857;28;20123;-79
2023/01/24 00:29:39;;;;;;;27.33;14.60;;;2.60;99.90;;;;;;5112407;28;20131;-80
2023/01/24 00:32:05;;;;;;;29.27;14.02;;;2.70;99.90;;;;;;5111801;28;20102;-80
2023/01/24 00:34:32;;;;;;;30.20;14.50;;;2.70;99.90;;;;;;5112647;28;20127;-80
2023/01/24 00:36:59;;;;;;;26.10;14.45;;;2.40;99.90;;;;;;5111571;28;20028;-80
2023/01/24 00:39:25;;;;;;;24.25;13.65;;;2.40;99.90;;;;;;5129249;28;20036;-80
2023/01/24 00:41:52;;;;;;;25.83;13.73;;;2.70;99.90;;;;;;5129004;28;20471;-80
2023/01/24 00:44:19;;;;;;;27.02;14.25;;;2.50;99.90;;;;;;5112331;28;20039;-80
2023/01/24 00:46:46;;;;;;;26.65;14.18;;;2.40;99.90;;;;;;5111926;28;20036;-79
2023/01/24 00:49:12;;;;;;;28.08;14.00;;;2.90;99.90;;;;;;5128666;28;20039;-79
2023/01/24 00:51:39;;;;;;;27.48;15.15;;;2.40;99.90;;;;;;5128655;28;20044;-79
2023/01/24 00:54:06;;;;;;;25.52;14.30;;;2.40;99.90;;;;;;5111673;28;20036;-79
2023/01/24 00:56:32;;;;;;;25.55;14.02;;;2.50;99.90;;;;;;5111864;28;20088;-80
2023/01/24 00:58:59;;;;;;;24.15;14.27;;;2.40;99.90;;;;;;5111511;28;20040;-80
2023/01/24 01:01:26;;;;;;;23.90;14.60;;;2.40;99.90;;;;;;5129101;28;20043;-80
2023/01/24 01:03:57;;;;;;;29.42;15.65;;;2.90;99.90;;;;;;5128089;28;20052;-80
2023/01/24 01:06:24;;;;;;;27.27;14.98;;;2.50;99.90;;;;;;5111928;28;20040;-80
2023/01/24 01:08:51;;;;;;;25.27;14.63;;;2.50;99.90;;;;;;5128077;28;20400;-79
2023/01/24 01:11:19;;;;;;;26.83;15.10;;;2.60;99.90;;;;;;5128361;28;20051;-80
2023/01/24 01:13:49;;;;;;;25.38;14.40;;;2.40;99.90;;;;;;5128297;28;20484;-80
2023/01/24 01:16:18;;;;;;;28.13;14.35;;;2.40;99.90;;;;;;5111374;28;20040;-80
2023/01/24 01:18:47;;;;;;;26.67;14.65;;;2.90;99.90;;;;;;5128244;28;20063;-80
2023/01/24 01:21:16;;;;;;;26.92;14.80;;;2.50;99.90;;;;;;5127913;28;20502;-80
2023/01/24 01:23:43;;;;;;;23.83;14.27;;;2.50;99.90;;;;;;5127208;28;20388;-80
2023/01/24 01:26:16;;;;;;;26.77;14.95;;;2.40;99.90;;;;;;5127871;28;20435;-80
2023/01/24 01:28:42;;;;;;;26.80;14.93;;;2.40;99.90;;;;;;5128502;28;20046;-79
2023/01/24 01:31:09;;;;;;;28.25;14.73;;;2.70;99.90;;;;;;5110964;28;20040;-79
2023/01/24 01:33:36;;;;;;;29.00;15.57;;;2.40;99.90;;;;;;5127995;28;20503;-79
2023/01/24 01:36:03;;;;;;;27.27;15.45;;;2.40;99.90;;;;;;5110993;28;20135;-80
2023/01/24 01:38:30;;;;;;;27.77;14.55;;;2.40;99.90;;;;;;5094532;28;20526;-80
2023/01/24 01:40:57;;;;;;;27.35;15.15;;;2.40;99.90;;;;;;5127428;28;20067;-80
2023/01/24 01:43:27;;;;;;;30.75;16.17;;;2.50;99.90;;;;;;5127425;28;20044;-79
2023/01/24 01:46:16;;;;;;;28.95;15.80;;;2.70;99.90;;;;;;5127707;28;20122;-79
2023/01/24 01:48:46;;;;;;;27.77;15.35;;;2.40;99.90;;;;;;5128080;28;20044;-79
2023/01/24 01:51:39;;;;;;;27.70;15.77;;;2.40;99.90;;;;;;5127337;28;20052;-80
2023/01/24 01:54:14;;;;;;;27.40;14.88;;;2.40;99.90;;;;;;5105060;28;20519;-80
2023/01/24 01:56:47;;;;;;;26.77;14.95;;;2.40;99.90;;;;;;5106788;28;20106;-80
2023/01/24 01:59:18;;;;;;;28.55;15.20;;;3.00;99.90;;;;;;5106717;28;20137;-80
2023/01/24 02:01:46;;;;;;;28.13;15.40;;;2.70;99.90;;;;;;5124922;28;20040;-80
2023/01/24 02:04:25;;;;;;;30.10;16.17;;;2.50;99.90;;;;;;5127681;28;20040;-80
2023/01/24 02:07:07;;;;;;;26.52;15.23;;;2.40;99.90;;;;;;5127239;28;20545;-79
2023/01/24 02:09:42;;;;;;;25.63;14.35;;;2.40;99.90;;;;;;5127560;28;20048;-80
2023/01/24 02:12:17;;;;;;;30.70;15.87;;;2.50;99.90;;;;;;5126508;28;20044;-80
2023/01/24 02:17:31;;;;;;;25.90;14.48;;;2.40;99.90;;;;;;5113159;28;19922;-80
2023/01/24 02:20:25;;;;;;;25.13;13.77;;;2.50;99.90;;;;;;5077268;28;20123;-80
2023/01/24 02:23:14;;;;;;;28.63;15.43;;;2.40;99.90;;;;;;5106887;28;20489;-79
2023/01/24 02:25:53;;;;;;;26.63;15.07;;;2.40;99.90;;;;;;5089775;28;20044;-80
2023/01/24 02:28:20;;;;;;;28.33;16.23;;;2.40;99.90;;;;;;5106272;28;20044;-79
2023/01/24 02:30:46;;;;;;;28.80;16.10;;;2.40;99.90;;;;;;5090701;28;20072;-80
2023/01/24 02:33:19;;;;;;;29.05;15.60;;;2.40;99.90;;;;;;5109855;28;20075;-80
2023/01/24 02:35:46;;;;;;;28.30;15.43;;;2.40;99.90;;;;;;5126512;28;20032;-80
2023/01/24 02:38:22;;;;;;;27.25;15.10;;;2.40;99.90;;;;;;5109974;28;20047;-79
2023/01/24 02:40:53;;;;;;;30.73;15.48;;;2.70;99.90;;;;;;5126471;28;20040;-79
2023/01/24 02:43:22;;;;;;;30.60;15.80;;;2.40;99.90;;;;;;5126270;28;20507;-80
2023/01/24 02:45:48;;;;;;;30.88;15.43;;;2.90;99.90;;;;;;5126826;28;20059;-79
2023/01/24 02:48:15;;;;;;;28.52;15.55;;;2.40;99.90;;;;;;5126376;28;20197;-79
2023/01/24 02:53:30;;;;;;;26.73;14.73;;;2.70;99.90;;;;;;5143351;28;20052;-79
2023/01/24 02:58:48;;;;;;;28.42;15.93;;;2.80;99.90;;;;;;5126535;28;20052;-79
2023/01/24 03:01:16;;;;;;;27.27;15.80;;;2.90;99.90;;;;;;5092423;28;20407;-79
2023/01/24 03:03:44;;;;;;;30.20;15.70;;;2.40;99.90;;;;;;5109578;28;20404;-80
2023/01/24 03:06:12;;;;;;;29.65;15.82;;;2.40;99.90;;;;;;5109027;28;20044;-79
2023/01/24 03:08:39;;;;;;;26.80;15.10;;;2.40;99.90;;;;;;5109297;28;20514;-80
2023/01/24 03:11:07;;;;;;;25.65;14.98;;;2.40;99.90;;;;;;5125696;28;20044;-79
2023/01/24 03:35:53;;;;;;;24.48;14.30;;;2.40;99.90;;;;;;5142962;28;20438;-80
2023/01/24 03:41:08;;;;;;;25.05;13.68;;;2.40;99.90;;;;;;5142611;28;20500;-79
2023/01/24 03:43:35;;;;;;;23.33;13.23;;;2.40;99.90;;;;;;5125366;28;20091;-80
2023/01/24 03:46:02;;;;;;;22.80;13.50;;;2.40;99.90;;;;;;5108216;28;20777;-80
2023/01/24 03:48:34;;;;;;;20.55;12.18;;;2.40;99.90;;;;;;5124453;28;20085;-80
2023/01/24 03:53:47;;;;;;;20.23;11.82;;;2.40;99.90;;;;;;5128566;28;20129;-80
2023/01/24 03:56:13;;;;;;;19.42;11.70;;;2.40;99.90;;;;;;5108323;28;20131;-79
2023/01/24 03:58:40;;;;;;;20.25;11.60;;;2.40;99.90;;;;;;5125502;28;20127;-80
2023/01/24 04:01:07;;;;;;;19.30;12.07;;;2.40;99.90;;;;;;5125384;28;20040;-80
2023/01/24 04:03:34;;;;;;;22.73;12.23;;;2.50;99.90;;;;;;5124917;28;20761;-79
2023/01/24 04:06:00;;;;;;;19.38;11.68;;;2.40;99.90;;;;;;5108486;28;20044;-80
2023/01/24 04:08:27;;;;;;;21.83;12.70;;;2.70;99.90;;;;;;5125019;28;20043;-79
2023/01/24 04:10:56;;;;;;;21.80;13.00;;;2.40;99.90;;;;;;5108173;28;20040;-80
2023/01/24 04:13:23;;;;;;;19.33;11.52;;;3.00;99.90;;;;;;5124918;28;20569;-79
2023/01/24 04:15:50;;;;;;;19.00;11.52;;;3.00;99.90;;;;;;5125418;28;20077;-79
2023/01/24 04:18:17;;;;;;;22.25;12.90;;;2.40;99.90;;;;;;5108523;28;20555;-79
2023/01/24 04:20:43;;;;;;;20.17;12.48;;;2.40;99.90;;;;;;5108380;28;20036;-79
2023/01/24 04:23:11;;;;;;;19.60;12.18;;;2.70;99.90;;;;;;5125507;28;20484;-80
2023/01/24 04:25:38;;;;;;;20.73;11.98;;;2.40;99.90;;;;;;5108274;28;20092;-80
2023/01/24 04:28:04;;;;;;;20.33;12.27;;;2.40;99.90;;;;;;5125032;28;20044;-80
2023/01/24 04:30:32;;;;;;;19.65;11.85;;;2.70;99.90;;;;;;5107920;28;20032;-79
2023/01/24 04:32:58;;;;;;;21.73;13.48;;;2.70;99.90;;;;;;5107877;28;20500;-80
2023/01/24 04:35:28;;;;;;;22.98;12.85;;;2.50;99.90;;;;;;5108198;28;20032;-80
2023/01/24 04:38:00;;;;;;;19.92;11.98;;;2.60;99.90;;;;;;5125054;28;20044;-79
2023/01/24 04:40:26;;;;;;;22.23;13.07;;;2.50;99.90;;;;;;5124984;28;20048;-80
2023/01/24 04:42:56;;;;;;;20.35;12.30;;;2.90;99.90;;;;;;5124950;28;20044;-80
2023/01/24 04:45:23;;;;;;;21.05;12.70;;;2.50;99.90;;;;;;5125008;28;20093;-79
2023/01/24 04:47:49;;;;;;;19.92;12.07;;;2.50;99.90;;;;;;5108137;28;20043;-80
2023/01/24 04:50:16;;;;;;;21.00;12.85;;;2.50;99.90;;;;;;5124929;28;20130;-80
2023/01/24 04:52:43;;;;;;;22.15;13.50;;;2.50;99.90;;;;;;5124680;28;20044;-80
2023/01/24 04:55:12;;;;;;;21.10;12.90;;;2.50;99.90;;;;;;5108909;28;20507;-80
2023/01/24 04:57:39;;;;;;;20.27;12.32;;;2.90;99.90;;;;;;5125348;28;20048;-80
2023/01/24 05:00:08;;;;;;;23.60;13.27;;;2.80;99.90;;;;;;5112141;28;20048;-80
2023/01/24 05:02:37;;;;;;;26.10;15.05;;;2.50;99.90;;;;;;5128275;28;20126;-80
2023/01/24 05:05:05;;;;;;;23.35;14.55;;;2.50;99.90;;;;;;5111730;28;20423;-80
2023/01/24 05:07:32;;;;;;;23.65;14.25;;;2.40;99.90;;;;;;5111343;28;20131;-79
2023/01/24 05:09:59;;;;;;;27.38;14.32;;;3.10;99.90;;;;;;5111548;28;20126;-80
2023/01/24 05:12:25;;;;;;;22.63;14.07;;;2.40;99.90;;;;;;5128277;28;20050;-80
2023/01/24 05:14:52;;;;;;;23.98;14.18;;;2.40;99.90;;;;;;5111447;28;20035;-80
2023/01/24 05:17:19;;;;;;;22.50;13.00;;;2.40;99.90;;;;;;5111682;28;20407;-79
2023/01/24 05:19:45;;;;;;;22.75;12.98;;;2.40;99.90;;;;;;5128060;28;20519;-79
2023/01/24 05:22:12;;;;;;;21.38;12.25;;;2.70;99.90;;;;;;5127943;28;20047;-79
2023/01/24 05:24:38;;;;;;;21.17;12.60;;;2.50;99.90;;;;;;5110821;28;20097;-79
2023/01/24 05:27:05;;;;;;;22.08;12.77;;;2.60;99.90;;;;;;5111779;28;20094;-79
2023/01/24 05:29:32;;;;;;;22.65;12.57;;;2.40;99.90;;;;;;5128057;28;20040;-79
2023/01/24 05:31:58;;;;;;;20.83;12.45;;;2.70;99.90;;;;;;5111158;28;20070;-80
2023/01/24 05:34:25;;;;;;;20.67;12.32;;;2.70;99.90;;;;;;5111025;28;20044;-79
2023/01/24 05:36:52;;;;;;;21.85;12.73;;;2.40;99.90;;;;;;5110937;28;20048;-80
2023/01/24 05:39:19;;;;;;;22.40;12.68;;;2.40;99.90;;;;;;5127901;28;20028;-80
2023/01/24 05:41:45;;;;;;;22.30;12.75;;;2.40;99.90;;;;;;5110657;28;20047;-80
2023/01/24 05:44:12;;;;;;;20.77;12.05;;;2.70;99.90;;;;;;5110510;28;20040;-80
2023/01/24 05:46:39;;;;;;;20.20;12.40;;;2.40;99.90;;;;;;5110911;28;20127;-80
2023/01/24 05:49:07;;;;;;;20.20;11.82;;;2.40;99.90;;;;;;5110635;28;20047;-79
2023/01/24 05:51:33;;;;;;;19.00;11.90;;;2.40;99.90;;;;;;5127234;28;20048;-79
2023/01/24 05:54:00;;;;;;;18.27;11.98;;;2.50;99.90;;;;;;5110664;28;20421;-79
2023/01/24 05:56:28;;;;;;;20.25;11.32;;;2.40;99.90;;;;;;5127669;28;20055;-80
2023/01/24 05:58:54;;;;;;;17.40;11.00;;;2.60;99.90;;;;;;5127570;28;20132;-80
2023/01/24 06:01:22;;;;;;;20.38;11.93;;;2.40;99.90;;;;;;5127642;28;20570;-80
2023/01/24 06:03:51;;;;;;;19.58;11.20;;;2.90;99.90;;;;;;5127090;28;20072;-80
2023/01/24 06:06:23;;;;;;;17.90;10.88;;;2.40;99.90;;;;;;5121475;28;20047;-80
2023/01/24 06:08:52;;;;;;;16.08;11.15;;;2.40;99.90;;;;;;5119085;28;20080;-80
2023/01/24 06:11:21;;;;;;;19.17;11.35;;;2.40;99.90;;;;;;5114143;28;20064;-80
2023/01/24 06:13:49;;;;;;;18.40;10.70;;;2.40;99.90;;;;;;5124048;28;20036;-80
2023/01/24 06:16:19;;;;;;;16.63;10.88;;;2.40;99.90;;;;;;5114364;28;20036;-79
2023/01/24 06:18:47;;;;;;;17.38;10.80;;;2.60;99.90;;;;;;5101019;28;20102;-79
2023/01/24 06:21:36;;;;;;;16.85;11.18;;;2.40;99.90;;;;;;5109790;28;20519;-79
2023/01/24 06:24:04;;;;;;;17.95;10.98;;;2.40;99.90;;;;;;5115976;28;20075;-80
2023/01/24 06:26:32;;;;;;;21.25;11.55;;;2.40;99.90;;;;;;5099545;28;20103;-80
2023/01/24 06:28:59;;;;;;;17.92;10.98;;;2.40;99.90;;;;;;5093259;28;20043;-79
2023/01/24 06:31:38;;;;;;;15.77;10.30;;;2.40;99.90;;;;;;5110262;28;20487;-79
2023/01/24 06:34:28;;;;;;;17.50;11.02;;;2.40;99.90;;;;;;5109829;28;20044;-79
2023/01/24 06:37:01;;;;;;;18.20;10.05;;;2.40;99.90;;;;;;5143013;28;20488;-79
2023/01/24 06:39:28;;;;;;;18.38;10.57;;;2.40;99.90;;;;;;5126788;28;20435;-80
2023/01/24 06:41:55;;;;;;;14.00;9.65;;;2.30;99.90;;;;;;5126317;28;20067;-80
2023/01/24 06:44:23;;;;;;;17.63;9.25;;;2.40;99.90;;;;;;5126374;28;20335;-80
2023/01/24 06:46:49;;;;;;;16.45;9.63;;;2.40;99.90;;;;;;5109265;28;20080;-80
2023/01/24 06:49:16;;;;;;;15.85;8.40;;;2.40;99.90;;;;;;5093043;28;20091;-80
2023/01/24 06:51:50;;;;;;;14.50;8.73;;;2.40;99.90;;;;;;5126038;28;20040;-80
2023/01/24 06:54:17;;;;;;;14.98;8.95;;;2.40;99.90;;;;;;5126335;28;20507;-80
2023/01/24 06:56:44;;;;;;;16.65;9.00;;;2.40;99.90;;;;;;5125738;28;20095;-80
2023/01/24 06:59:11;;;;;;;15.35;8.23;;;2.40;99.90;;;;;;5126326;28;20048;-79
2023/01/24 07:01:37;;;;;;;14.27;7.30;;;2.40;99.90;;;;;;5125902;28;20526;-78
2023/01/24 07:04:04;;;;;;;19.38;7.80;;;2.80;99.90;;;;;;5126189;28;20512;-80
2023/01/24 07:06:31;;;;;;;14.35;8.00;;;2.40;99.90;;;;;;5126310;28;20047;-80
2023/01/24 07:08:57;;;;;;;14.43;8.05;;;2.40;99.90;;;;;;5125616;28;20139;-80
2023/01/24 07:11:24;;;;;;;15.23;8.00;;;2.40;99.90;;;;;;5126479;28;20052;-80
2023/01/24 07:13:51;;;;;;;15.82;8.90;;;2.40;99.90;;;;;;5092098;28;20093;-79
2023/01/24 07:16:17;;;;;;;15.30;7.72;;;2.40;99.90;;;;;;5108902;28;20044;-80
2023/01/24 07:18:44;;;;;;;14.65;7.93;;;2.40;99.90;;;;;;5108749;28;20035;-79
2023/01/24 07:21:12;;;;;;;12.43;7.05;;;2.40;99.90;;;;;;5125058;28;20040;-79
2023/01/24 07:23:44;;;;;;;15.25;8.02;;;2.40;99.90;;;;;;5125363;28;20067;-79
2023/01/24 07:26:11;;;;;;;16.13;7.78;;;2.40;99.90;;;;;;5105903;28;20093;-79
2023/01/24 07:28:38;;;;;;;13.23;7.07;;;2.30;99.90;;;;;;5108029;28;20044;-80
2023/01/24 07:31:05;;;;;;;11.90;6.72;;;2.30;99.90;;;;;;5108499;28;20044;-79
2023/01/24 07:33:32;;;;;;;13.73;6.53;;;2.30;99.90;;;;;;5108130;28;20032;-79
2023/01/24 07:35:59;;;;;;;10.95;4.03;;;2.30;99.90;;;;;;5125028;28;20043;-79
2023/01/24 07:38:26;;;;;;;8.32;3.65;;;2.30;99.90;;;;;;5124906;28;20469;-79
2023/01/24 07:40:53;;;;;;;7.03;3.45;;;2.30;99.90;;;;;;5122425;28;20040;-79
2023/01/24 07:43:20;;;;;;;8.15;3.63;;;2.40;99.90;;;;;;5073198;28;20033;-80
2023/01/24 07:45:46;;;;;;;9.65;4.15;;;2.30;99.90;;;;;;5098935;28;20173;-80
2023/01/24 07:48:13;;;;;;;10.50;3.85;;;3.00;99.90;;;;;;5098701;28;20040;-80
2023/01/24 07:50:40;;;;;;;9.60;4.40;;;2.60;99.90;;;;;;5097017;28;20040;-80
2023/01/24 07:53:06;;;;;;;6.75;3.42;;;2.30;99.90;;;;;;5096618;28;20044;-80
2023/01/24 07:55:33;;;;;;;9.18;3.88;;;2.30;99.90;;;;;;5119217;28;20032;-79
2023/01/24 07:58:01;;;;;;;10.68;4.40;;;2.30;99.90;;;;;;5101127;28;20571;-80
2023/01/24 08:00:28;;;;;;;9.95;3.70;;;2.30;99.90;;;;;;5110972;28;20036;-79
2023/01/24 08:02:55;;;;;;;9.90;4.00;;;2.60;99.90;;;;;;5096475;28;20451;-80
2023/01/24 08:05:22;;;;;;;13.40;3.97;;;2.30;99.90;;;;;;5098949;28;20121;-80
2023/01/24 08:07:49;;;;;;;9.27;3.70;;;2.40;99.90;;;;;;5123617;28;20064;-79
2023/01/24 08:10:16;;;;;;;8.43;3.08;;;2.30;99.90;;;;;;5098401;28;20399;-81
2023/01/24 08:12:42;;;;;;;6.35;3.45;;;2.40;99.90;;;;;;5125179;28;20040;-80
2023/01/24 08:15:09;;;;;;;7.13;3.63;;;2.30;99.90;;;;;;5091371;28;20486;-80
2023/01/24 08:17:39;;;;;;;11.23;3.75;;;2.30;99.90;;;;;;5125630;28;20130;-80
2023/01/24 08:20:08;;;;;;;13.48;3.63;;;2.40;99.90;;;;;;5106551;28;20036;-80
2023/01/24 08:22:34;;;;;;;8.00;3.13;;;2.30;99.90;;;;;;5114784;28;20040;-81
2023/01/24 08:25:01;;;;;;;8.90;4.00;;;2.30;99.90;;;;;;5117015;28;20102;-81
2023/01/24 08:27:28;;;;;;;8.77;3.78;;;2.40;99.90;;;;;;5116278;28;20042;-81
2023/01/24 08:29:55;;;;;;;9.38;3.75;;;2.40;99.90;;;;;;5120892;28;20487;-81
2023/01/24 08:32:21;;;;;;;6.82;3.35;;;2.40;99.90;;;;;;5080361;28;20042;-81
2023/01/24 08:34:48;;;;;;;10.90;3.88;;;2.40;99.90;;;;;;5117583;28;20066;-80
2023/01/24 08:37:15;;;;;;;8.63;3.70;;;2.40;99.90;;;;;;5128614;28;20115;-81
2023/01/24 08:39:42;;;;;;;7.97;3.33;;;2.40;99.90;;;;;;5116051;28;20036;-81
2023/01/24 08:42:09;;;;;;;8.52;3.30;;;2.40;99.90;;;;;;5116286;28;20039;-80
2023/01/24 08:44:36;;;;;;;7.88;3.80;;;2.60;99.90;;;;;;5102513;28;20038;-79
2023/01/24 08:47:03;;;;;;;8.82;4.28;;;2.40;99.90;;;;;;5100781;28;20154;-81
2023/01/24 08:49:29;;;;;;;7.85;3.10;;;2.40;99.90;;;;;;5128278;28;20075;-80
2023/01/24 08:51:59;;;;;;;6.60;3.50;;;2.80;99.90;;;;;;5127978;28;20048;-80
2023/01/24 08:54:32;;;;;;;7.60;3.50;;;2.80;99.90;;;;;;5110828;28;20036;-82
2023/01/24 08:56:59;;;;;;;11.45;3.80;;;2.50;99.90;;;;;;5122978;28;20393;-82
2023/01/24 08:59:26;;;;;;;10.52;3.47;;;2.50;99.90;;;;;;5097064;28;20037;-80
2023/01/24 09:01:52;;;;;;;9.18;3.63;;;2.70;99.90;;;;;;5091383;28;20048;-81
2023/01/24 09:04:19;;;;;;;8.43;3.08;;;2.40;99.90;;;;;;5091728;28;20382;-82
2023/01/24 09:06:46;;;;;;;7.47;3.38;;;2.50;99.90;;;;;;5109878;28;20098;-81
2023/01/24 09:09:15;;;;;;;8.60;3.88;;;2.50;99.90;;;;;;5097083;28;20051;-80
2023/01/24 09:11:42;;;;;;;8.68;3.72;;;3.00;99.90;;;;;;5125441;28;20174;-82
2023/01/24 09:14:08;;;;;;;11.73;4.28;;;2.50;99.90;;;;;;5111516;28;20123;-82
2023/01/24 09:16:35;;;;;;;8.70;3.42;;;2.60;99.90;;;;;;5111680;28;20032;-82
2023/01/24 09:19:02;;;;;;;9.68;3.83;;;2.50;99.90;;;;;;5105297;28;20404;-82
2023/01/24 09:21:29;;;;;;;8.82;3.47;;;2.50;99.90;;;;;;5100309;28;20576;-83
2023/01/24 09:23:56;;;;;;;7.93;4.18;;;2.50;99.90;;;;;;5100884;28;20047;-82
2023/01/24 09:26:22;;;;;;;10.80;3.60;;;2.50;99.90;;;;;;5112928;28;20040;-82
2023/01/24 09:28:52;;;;;;;10.48;4.05;;;2.90;99.90;;;;;;5091358;28;20467;-82
2023/01/24 09:31:19;;;;;;;8.85;3.50;;;2.60;99.90;;;;;;5102071;28;20044;-82
2023/01/24 09:33:45;;;;;;;9.88;4.00;;;2.60;99.90;;;;;;5080277;28;20492;-82
2023/01/24 09:36:12;;;;;;;11.02;3.58;;;2.60;99.90;;;;;;5107818;28;20032;-82
2023/01/24 09:38:39;;;;;;;7.32;3.40;;;2.80;99.90;;;;;;5091772;28;20076;-82
2023/01/24 09:41:10;;;;;;;11.18;4.10;;;2.50;99.90;;;;;;5091376;28;20044;-81
2023/01/24 09:43:42;;;;;;;7.57;3.70;;;2.90;99.90;;;;;;5111578;28;20123;-82
2023/01/24 09:46:41;;;;;;;8.50;3.65;;;2.60;99.90;;;;;;5127406;28;20036;-82
2023/01/24 09:49:27;;;;;;;8.05;3.90;;;2.60;99.90;;;;;;5139115;27;20044;-82
2023/01/24 09:51:54;;;;;;;7.50;3.28;;;2.60;99.90;;;;;;5127085;28;20066;-82
2023/01/24 09:54:57;;;;;;;8.13;3.45;;;2.60;99.90;;;;;;5119531;28;20514;-82
2023/01/24 09:57:49;;;;;;;8.02;4.00;;;2.60;99.90;;;;;;5107165;28;20040;-82
2023/01/24 10:00:24;;;;;;;9.88;3.55;;;2.70;99.90;;;;;;5127130;28;20035;-82
2023/01/24 10:02:52;;;;;;;8.00;3.90;;;2.70;99.90;;;;;;5116982;28;20048;-82
2023/01/24 10:05:19;;;;;;;10.48;3.70;;;2.70;99.90;;;;;;5090482;28;20532;-82
2023/01/24 10:08:34;;;;;;;8.00;3.70;;;2.70;99.90;;;;;;5090835;28;20132;-82
2023/01/24 10:11:16;;;;;;;12.82;3.53;;;2.70;99.90;;;;;;5111434;28;20046;-82
2023/01/24 10:13:57;;;;;;;9.85;4.20;;;2.70;99.90;;;;;;5110774;28;20040;-82
2023/01/24 10:16:42;;;;;;;8.38;3.95;;;2.70;99.90;;;;;;5144662;28;20031;-82
2023/01/24 10:19:46;;;;;;;8.90;4.50;;;2.70;99.90;;;;;;5107381;28;20079;-82
2023/01/24 10:22:36;;;;;;;7.88;3.83;;;2.70;99.90;;;;;;5107462;28;20055;-82
2023/01/24 10:25:24;;;;;;;8.73;3.67;;;2.80;99.90;;;;;;5097286;28;20044;-82
2023/01/24 10:27:55;;;;;;;12.73;4.40;;;2.70;99.90;;;;;;5107645;28;20409;-82
2023/01/24 10:30:30;;;;;;;9.20;4.70;;;2.80;99.90;;;;;;5091398;28;20408;-82
2023/01/24 10:33:03;;;;;;;10.00;4.73;;;2.80;99.90;;;;;;5106521;28;20047;-82
2023/01/24 10:35:43;;;;;;;8.05;3.42;;;2.80;99.90;;;;;;5110063;28;20286;-82
2023/01/24 10:38:13;;;;;;;8.90;3.92;;;2.80;99.90;;;;;;5110457;28;20040;-82
2023/01/24 10:41:20;;;;;;;10.82;4.38;;;2.80;99.90;;;;;;5123893;28;20072;-82
2023/01/24 10:44:04;;;;;;;10.38;4.30;;;2.80;99.90;;;;;;5098525;28;20048;-82
2023/01/24 10:47:02;;;;;;;6.88;3.40;;;2.80;99.90;;;;;;5090598;28;20043;-82
2023/01/24 10:49:38;;;;;;;11.13;4.50;;;2.80;99.90;;;;;;5090044;28;20048;-82
2023/01/24 10:52:23;;;;;;;9.57;3.72;;;2.80;99.90;;;;;;5118280;28;20055;-82
2023/01/24 10:54:58;;;;;;;11.90;4.65;;;2.80;99.90;;;;;;5127760;28;20072;-82
2023/01/24 10:57:35;;;;;;;10.82;4.82;;;2.80;99.90;;;;;;5109858;28;20522;-82
2023/01/24 11:00:27;;;;;;;8.13;3.83;;;2.90;99.90;;;;;;5127028;28;20044;-83
2023/01/24 11:02:57;;;;;;;8.68;4.53;;;2.80;99.90;;;;;;5110280;28;20040;-82
2023/01/24 11:05:25;;;;;;;13.43;5.18;;;2.80;99.90;;;;;;5090352;28;20445;-82
2023/01/24 11:08:04;;;;;;;8.18;4.15;;;2.80;99.90;;;;;;5110340;28;20556;-82
2023/01/24 11:10:36;;;;;;;9.57;3.88;;;2.90;99.90;;;;;;5109945;28;20067;-82
2023/01/24 11:13:21;;;;;;;10.48;4.75;;;3.10;99.90;;;;;;5109609;28;20072;-82
2023/01/24 11:15:53;;;;;;;8.98;3.97;;;3.10;99.90;;;;;;5109921;28;20130;-82
2023/01/24 11:18:23;;;;;;;11.07;4.35;;;2.50;99.90;;;;;;5108880;28;20039;-82
2023/01/24 11:21:05;;;;;;;14.43;5.40;;;2.90;99.90;;;;;;5109990;28;20492;-82
2023/01/24 11:23:32;;;;;;;9.55;4.25;;;3.40;99.90;;;;;;5109375;28;20035;-82
2023/01/24 11:26:03;;;;;;;11.68;4.50;;;2.90;99.90;;;;;;5093036;28;20510;-82
2023/01/24 11:28:33;;;;;;;13.13;5.22;;;2.90;99.90;;;;;;5098956;28;20036;-82
2023/01/24 11:31:15;;;;;;;11.43;4.57;;;2.90;99.90;;;;;;5110003;28;20047;-82
2023/01/24 11:34:06;;;;;;;10.07;4.85;;;3.10;99.90;;;;;;5109914;28;20377;-82
2023/01/24 11:36:42;;;;;;;11.10;4.63;;;2.90;99.90;;;;;;5089817;28;20055;-82
2023/01/24 11:39:34;;;;;;;16.23;4.78;;;2.90;99.90;;;;;;5094215;28;20036;-82
2023/01/24 11:42:11;;;;;;;12.38;4.55;;;2.90;99.90;;;;;;5109701;28;20109;-82
2023/01/24 11:44:59;;;;;;;9.32;4.53;;;3.00;99.90;;;;;;5109588;28;20191;-82
2023/01/24 11:47:36;;;;;;;11.20;4.93;;;3.00;99.90;;;;;;5109426;28;20039;-82
2023/01/24 11:50:17;;;;;;;9.32;4.07;;;3.10;99.90;;;;;;5108961;28;20040;-82
2023/01/24 11:52:59;;;;;;;9.27;4.35;;;3.10;99.90;;;;;;5126217;28;20054;-82
2023/01/24 11:55:46;;;;;;;9.10;4.22;;;3.10;99.90;;;;;;5109322;28;20035;-82
2023/01/24 11:58:22;;;;;;;9.63;4.50;;;3.10;99.90;;;;;;5126007;28;20052;-82
2023/01/24 12:01:05;;;;;;;;;;;3.10;99.90;;;;;;5106597;28;20033;-82
2023/01/24 12:04:01;;;;;;;14.70;5.20;;;3.10;99.90;;;;;;5089646;28;19917;-82
2023/01/24 12:06:47;;;;;;;10.00;4.22;;;3.10;99.90;;;;;;5105737;28;20048;-82
2023/01/24 12:09:21;;;;;;;11.80;5.10;;;3.10;99.90;;;;;;5119314;28;20040;-82
2023/01/24 12:11:56;;;;;;;10.27;4.72;;;3.00;99.90;;;;;;5109012;28;20068;-82
2023/01/24 12:14:25;;;;;;;11.65;5.00;;;3.10;99.90;;;;;;5120408;28;20119;-82
2023/01/24 12:17:10;;;;;;;10.98;4.95;;;3.10;99.90;;;;;;5117975;28;20082;-82
2023/01/24 12:20:15;;;;;;;9.43;4.72;;;3.00;99.90;;;;;;5121259;28;20074;-82
2023/01/24 12:22:42;;;;;;;11.52;4.60;;;3.00;99.90;;;;;;5122189;28;20044;-83
2023/01/24 12:25:20;;;;;;;10.93;4.53;;;3.00;99.90;;;;;;5106511;28;20074;-82
2023/01/24 12:27:50;;;;;;;10.43;4.50;;;3.00;99.90;;;;;;5113696;28;20049;-82
2023/01/24 12:30:23;;;;;;;10.88;5.13;;;3.00;99.90;;;;;;5108857;28;20048;-82
2023/01/24 12:32:56;;;;;;;11.05;5.47;;;3.00;99.90;;;;;;5109094;28;20047;-82
2023/01/24 12:35:31;;;;;;;9.32;4.63;;;3.10;99.90;;;;;;5108852;28;20437;-83
2023/01/24 12:38:10;;;;;;;12.52;5.47;;;3.00;99.90;;;;;;5109281;28;20050;-82
2023/01/24 12:40:52;;;;;;;13.13;4.88;;;3.00;99.90;;;;;;5116231;28;20536;-83
2023/01/24 12:43:40;;;;;;;12.05;5.30;;;3.00;99.90;;;;;;5120641;28;20527;-82
2023/01/24 12:46:16;;;;;;;9.00;5.00;;;3.00;99.90;;;;;;5126060;28;20075;-82
2023/01/24 12:48:52;;;;;;;9.32;4.25;;;3.30;99.90;;;;;;5121539;28;20040;-82
2023/01/24 12:51:48;;;;;;;12.85;5.57;;;2.90;99.90;;;;;;5126124;28;20048;-82
2023/01/24 12:54:27;;;;;;;11.00;5.30;;;3.00;99.90;;;;;;5120704;28;20033;-82
2023/01/24 12:57:18;;;;;;;13.27;5.22;;;3.00;99.90;;;;;;5102414;28;20663;-82
2023/01/24 12:59:45;;;;;;;10.18;4.53;;;2.90;99.90;;;;;;5117256;28;20044;-82
2023/01/24 13:02:52;;;;;;;16.45;6.50;;;2.90;99.90;;;;;;5122434;28;20458;-82
2023/01/24 13:05:46;;;;;;;11.02;4.93;;;2.90;99.90;;;;;;5088382;28;20040;-81
2023/01/24 13:08:22;;;;;;;10.38;4.75;;;2.90;99.90;;;;;;5088785;28;20107;-81
2023/01/24 13:10:59;;;;;;;11.85;4.90;;;2.90;99.90;;;;;;5088198;28;20069;-81
2023/01/24 13:13:31;;;;;;;10.52;5.20;;;2.90;99.90;;;;;;5088134;28;20043;-81
2023/01/24 13:16:27;;;;;;;12.98;5.07;;;2.80;99.90;;;;;;5088549;28;20123;-81
2023/01/24 13:19:23;;;;;;;13.80;4.32;;;2.80;99.90;;;;;;5112872;28;20067;-81
2023/01/24 13:22:31;;;;;;;11.35;5.65;;;2.80;99.90;;;;;;5111983;28;20035;-82
2023/01/24 13:25:20;;;;;;;12.55;5.00;;;2.80;99.90;;;;;;5111700;28;20519;-81
2023/01/24 13:28:03;;;;;;;15.48;5.70;;;2.80;99.90;;;;;;5111814;28;20532;-81
2023/01/24 13:30:54;;;;;;;14.32;5.93;;;2.80;99.90;;;;;;5111766;28;20525;-81
2023/01/24 13:33:33;;;;;;;9.73;4.38;;;2.70;99.90;;;;;;5107960;28;20179;-81
2023/01/24 13:36:04;;;;;;;10.82;4.97;;;2.90;99.90;;;;;;5108567;28;20044;-81
2023/01/24 13:38:41;;;;;;;11.80;5.07;;;2.70;99.90;;;;;;5091541;28;20040;-82
2023/01/24 13:41:31;;;;;;;11.63;5.00;;;2.70;99.90;;;;;;5108514;28;20408;-81
2023/01/24 13:44:01;;;;;;;14.20;5.43;;;2.70;99.90;;;;;;5108114;28;20559;-81
2023/01/24 13:46:44;;;;;;;14.52;5.45;;;2.70;99.90;;;;;;5108547;28;20051;-81